Time;durP1;ratioP1;P1;durP2;ratioP2;P2;SDS_P1;SDS_P2;PMS_P1;PMS_P2;Temp;Humidity;BMP_temperature;BMP_pressure;BME280_temperature;BME280_humidity;BME280_pressure;Samples;Min_cycle;Max_cycle;Signal;HPM_P1;HPM_P2
2023/07/27 04:00:42;;;;;;;23.60;10.90;;;;;;;13.86;76.55;98564.73;107005;1277;97310;-91
2023/07/27 04:03:12;;;;;;;21.10;10.60;;;;;;;13.86;76.49;98572.61;106068;1284;115717;-89
2023/07/27 04:05:40;;;;;;;22.40;10.70;;;;;;;13.86;76.64;98576.16;106318;1284;95798;-90
2023/07/27 04:08:10;;;;;;;18.80;10.00;;;;;;;13.87;76.58;98574.44;106252;1283;107691;-91
2023/07/27 04:10:39;;;;;;;20.30;10.10;;;;;;;13.87;76.40;98582.29;106117;1284;95760;-90
2023/07/27 04:13:07;;;;;;;22.30;10.70;;;;;;;13.90;76.51;98585.96;106104;1283;95641;-90
2023/07/27 04:15:39;;;;;;;18.40;9.00;;;;;;;13.91;76.50;98591.88;105997;1284;112399;-91
2023/07/27 04:18:07;;;;;;;17.90;8.80;;;;;;;13.92;76.51;98592.54;106317;1285;95690;-91
2023/07/27 04:20:35;;;;;;;17.90;8.80;;;;;;;13.93;76.67;98591.69;106208;1285;107798;-90
2023/07/27 04:23:03;;;;;;;19.20;9.10;;;;;;;13.91;76.54;98599.59;106279;1285;95660;-91
2023/07/27 04:25:31;;;;;;;17.50;8.40;;;;;;;13.88;76.43;98600.02;106248;1285;95773;-90
2023/07/27 04:28:00;;;;;;;18.80;8.70;;;;;;;13.85;76.63;98601.52;106144;1284;110841;-90
2023/07/27 04:30:28;;;;;;;18.30;8.50;;;;;;;13.85;76.54;98603.33;106121;1284;95783;-89
2023/07/27 04:32:56;;;;;;;16.90;8.00;;;;;;;13.88;76.60;98604.63;106268;1285;107479;-89
2023/07/27 04:35:25;;;;;;;17.50;8.50;;;;;;;13.92;76.73;98610.00;106317;1284;95651;-90
2023/07/27 04:37:53;;;;;;;17.30;9.00;;;;;;;13.97;76.69;98608.83;106191;1284;95695;-89
2023/07/27 04:40:21;;;;;;;17.70;7.70;;;;;;;14.00;76.70;98600.30;106341;1284;110574;-90
2023/07/27 04:42:49;;;;;;;18.70;9.30;;;;;;;14.04;76.71;98604.27;106201;1285;95910;-91
2023/07/27 04:45:18;;;;;;;20.00;8.50;;;;;;;14.04;76.83;98598.02;106139;1285;107307;-91
2023/07/27 04:47:46;;;;;;;18.30;8.50;;;;;;;14.09;76.73;98600.23;106094;1283;95971;-90
2023/07/27 04:50:14;;;;;;;17.30;8.10;;;;;;;14.16;76.79;98595.63;105992;1284;96102;-90
2023/07/27 04:52:42;;;;;;;18.70;8.60;;;;;;;14.24;76.77;98599.13;106318;1284;109824;-90
2023/07/27 04:55:10;;;;;;;17.90;7.90;;;;;;;14.33;76.76;98593.84;106320;1285;95884;-90
2023/07/27 04:57:38;;;;;;;18.60;8.00;;;;;;;14.42;76.79;98595.14;106352;1284;108286;-90
2023/07/27 05:00:07;;;;;;;17.90;7.90;;;;;;;14.46;76.70;98590.61;106103;1283;95769;-90
2023/07/27 05:02:35;;;;;;;16.20;7.60;;;;;;;14.55;76.71;98588.87;106250;1284;95848;-90
2023/07/27 05:05:03;;;;;;;17.10;7.50;;;;;;;14.60;76.62;98591.80;106063;1284;111388;-89
2023/07/27 05:07:32;;;;;;;18.60;7.40;;;;;;;14.59;76.50;98593.80;106120;1284;95750;-91
2023/07/27 05:10:00;;;;;;;15.50;8.00;;;;;;;14.63;76.62;98597.09;106095;1284;107826;-90
2023/07/27 05:12:28;;;;;;;19.90;8.20;;;;;;;14.65;76.52;98593.24;105980;1285;95714;-90
2023/07/27 05:14:58;;;;;;;17.70;8.00;;;;;;;14.68;76.63;98597.10;106155;1285;95696;-90
2023/07/27 05:17:26;;;;;;;17.50;8.40;;;;;;;14.73;76.67;98596.48;106129;1283;111130;-90
2023/07/27 05:19:54;;;;;;;18.20;8.10;;;;;;;14.83;76.75;98597.05;105982;1285;97398;-91
2023/07/27 05:22:23;;;;;;;17.60;7.50;;;;;;;14.90;76.69;98598.52;106275;1285;108606;-90
2023/07/27 05:24:53;;;;;;;21.40;8.10;;;;;;;14.93;76.65;98601.13;106179;1283;96188;-90
2023/07/27 05:27:22;;;;;;;18.90;7.30;;;;;;;14.95;76.64;98607.48;106120;1284;95701;-90
2023/07/27 05:32:38;;;;;;;16.70;7.90;;;;;;;15.01;76.57;98614.77;106934;1278;96347;-92
2023/07/27 05:35:10;;;;;;;15.50;7.40;;;;;;;15.06;76.55;98618.29;106067;1285;107716;-91
2023/07/27 06:02:17;;;;;;;10.40;4.60;;;;;;;15.51;75.62;98655.41;106263;1284;96257;-89
2023/07/27 06:04:46;;;;;;;11.90;5.10;;;;;;;15.50;75.76;98655.20;106096;1285;107683;-90
2023/07/27 06:07:14;;;;;;;9.90;4.80;;;;;;;15.50;75.71;98653.95;106053;1285;97127;-90
2023/07/27 06:09:42;;;;;;;13.60;5.60;;;;;;;15.49;75.70;98658.34;106126;1284;95755;-90
2023/07/27 06:12:13;;;;;;;13.90;6.40;;;;;;;15.47;75.65;98659.16;106084;1285;111559;-91
2023/07/27 06:14:44;;;;;;;11.60;5.70;;;;;;;15.54;75.75;98668.77;106111;1285;97741;-90
2023/07/27 06:17:14;;;;;;;16.30;6.20;;;;;;;15.58;75.59;98669.98;106046;1285;107675;-90
2023/07/27 06:19:49;;;;;;;11.30;5.30;;;;;;;15.62;75.68;98668.79;106114;1284;95844;-90
2023/07/27 06:22:17;;;;;;;12.80;5.90;;;;;;;15.74;75.90;98665.27;106024;1284;95995;-89
2023/07/27 06:24:46;;;;;;;14.70;5.80;;;;;;;15.84;75.70;98669.71;105992;1284;111553;-89
2023/07/27 06:27:16;;;;;;;17.30;6.60;;;;;;;15.86;75.73;98667.30;106025;1284;97440;-90
2023/07/27 06:29:44;;;;;;;12.90;6.00;;;;;;;15.86;75.69;98677.67;106019;1284;107867;-90
2023/07/27 06:32:14;;;;;;;14.60;6.80;;;;;;;15.84;75.57;98681.80;105943;1285;96195;-91
2023/07/27 06:34:42;;;;;;;14.70;6.80;;;;;;;15.83;75.49;98685.30;106114;1284;95793;-90
2023/07/27 06:37:14;;;;;;;11.90;5.80;;;;;;;15.81;75.55;98684.42;106228;1284;111355;-90
2023/07/27 06:39:43;;;;;;;13.10;5.70;;;;;;;15.78;75.61;98681.29;106119;1283;95933;-90
2023/07/27 06:45:28;;;;;;;12.10;4.80;;;;;;;15.78;75.19;98680.44;106369;1284;95782;-91
2023/07/27 06:47:57;;;;;;;12.20;5.70;;;;;;;15.84;75.45;98683.29;106085;1283;95839;-90
2023/07/27 06:50:50;;;;;;;14.20;5.50;;;;;;;15.92;75.51;98678.52;106237;1284;111384;-90
2023/07/27 06:53:19;;;;;;;11.10;6.00;;;;;;;15.96;74.74;98686.19;106185;1284;96067;-90
2023/07/27 06:55:49;;;;;;;11.10;4.70;;;;;;;15.99;75.08;98683.53;106035;1284;107912;-89
2023/07/27 06:58:20;;;;;;;13.50;4.50;;;;;;;16.02;74.83;98685.02;106049;1285;96138;-91
2023/07/27 07:00:49;;;;;;;10.20;4.50;;;;;;;16.01;74.46;98690.48;106081;1284;95784;-89
2023/07/27 07:03:19;;;;;;;10.80;4.60;;;;;;;15.98;74.44;98697.29;106146;1283;110119;-89
2023/07/27 07:05:48;;;;;;;8.70;4.60;;;;;;;15.99;74.81;98699.88;106144;1284;95808;-90
2023/07/27 07:08:19;;;;;;;13.80;5.00;;;;;;;16.05;74.97;98702.29;106229;1284;107884;-90
2023/07/27 07:10:47;;;;;;;14.40;4.70;;;;;;;16.14;74.96;98698.12;105992;1284;96654;-90
2023/07/27 07:13:15;;;;;;;9.20;4.50;;;;;;;16.23;74.85;98695.13;106199;1286;95718;-90
2023/07/27 07:15:45;;;;;;;9.10;4.40;;;;;;;16.28;74.89;98692.26;106057;1285;111350;-91
2023/07/27 07:18:15;;;;;;;7.50;4.30;;;;;;;16.38;74.76;98695.06;106110;1284;95697;-90
2023/07/27 07:20:46;;;;;;;7.50;3.80;;;;;;;16.47;74.70;98698.07;106201;1285;106347;-91
2023/07/27 07:27:58;;;;;;;9.20;3.90;;;;;;;16.46;74.32;98702.77;106368;1283;95656;-93
2023/07/27 07:45:33;;;;;;;10.40;4.20;;;;;;;16.36;73.71;98709.34;106579;1281;109924;-90
2023/07/27 07:48:03;;;;;;;10.20;4.20;;;;;;;16.39;73.93;98709.29;106144;1285;95739;-90
2023/07/27 07:50:50;;;;;;;7.70;4.10;;;;;;;16.45;74.10;98710.40;106102;1284;109673;-90
2023/07/27 07:53:21;;;;;;;11.70;4.20;;;;;;;16.51;74.18;98710.00;106104;1285;95911;-90
2023/07/27 07:56:02;;;;;;;9.60;3.90;;;;;;;16.55;73.88;98710.09;106188;1284;95781;-90
2023/07/27 07:58:32;;;;;;;9.90;4.40;;;;;;;16.56;73.92;98711.74;106245;1284;111370;-89
2023/07/27 08:01:01;;;;;;;9.90;4.40;;;;;;;16.61;73.84;98707.67;106101;1283;96116;-89
2023/07/27 08:03:29;;;;;;;7.50;4.00;;;;;;;16.69;73.90;98702.41;106160;1284;107535;-90
2023/07/27 08:06:41;;;;;;;6.00;3.40;;;;;;;16.83;74.00;98704.73;105981;1284;95825;-90
2023/07/27 08:09:10;;;;;;;7.70;3.20;;;;;;;16.90;73.35;98706.34;106060;1284;96159;-90
2023/07/27 08:11:41;;;;;;;7.60;3.60;;;;;;;16.89;72.59;98707.49;106017;1284;110968;-90
2023/07/27 08:14:12;;;;;;;7.70;3.80;;;;;;;16.97;73.42;98704.34;106141;1284;95876;-89
2023/07/27 08:16:41;;;;;;;8.60;3.90;;;;;;;17.11;73.03;98701.58;106138;1285;108875;-90
2023/07/27 08:19:10;;;;;;;13.60;4.50;;;;;;;17.25;73.39;98697.79;106066;1284;95715;-89
2023/07/27 08:21:38;;;;;;;7.90;3.80;;;;;;;17.34;73.58;98698.48;106090;1285;95801;-91
2023/07/27 08:24:07;;;;;;;7.20;3.90;;;;;;;17.41;73.22;98696.89;106074;1285;110895;-91
2023/07/27 08:27:18;;;;;;;7.80;3.80;;;;;;;17.48;73.06;98698.94;106149;1286;95863;-90
2023/07/27 08:29:47;;;;;;;6.60;3.50;;;;;;;17.50;72.85;98703.20;106365;1283;108860;-90
2023/07/27 08:32:18;;;;;;;8.80;3.80;;;;;;;17.51;73.01;98702.09;106023;1285;95779;-90
2023/07/27 08:34:47;;;;;;;11.50;4.50;;;;;;;17.48;72.37;98709.54;106074;1284;95720;-89
2023/07/27 08:37:16;;;;;;;6.90;3.20;;;;;;;17.44;72.73;98710.53;106001;1285;111363;-93
2023/07/27 08:39:44;;;;;;;8.00;3.90;;;;;;;17.41;72.68;98716.17;105983;1284;95781;-92
2023/07/27 08:42:17;;;;;;;9.40;4.10;;;;;;;17.37;72.33;98709.98;106069;1284;107833;-92
2023/07/27 08:44:46;;;;;;;8.00;3.90;;;;;;;17.33;72.59;98711.88;105921;1285;96137;-92
2023/07/27 08:50:27;;;;;;;12.20;5.60;;;;;;;17.34;72.70;98713.03;106043;1284;110902;-92
2023/07/27 08:52:59;;;;;;;12.90;5.70;;;;;;;17.28;72.42;98716.12;106107;1285;96787;-93
2023/07/27 08:55:29;;;;;;;12.20;5.50;;;;;;;17.15;72.01;98715.93;105934;1285;107765;-92
2023/07/27 08:57:59;;;;;;;12.80;6.10;;;;;;;17.01;72.01;98717.92;106137;1284;95860;-93
2023/07/27 09:00:49;;;;;;;15.30;6.30;;;;;;;16.92;72.22;98720.07;106045;1284;95768;-92
2023/07/27 09:03:20;;;;;;;18.10;6.80;;;;;;;16.90;72.41;98721.17;106206;1284;111261;-92
2023/07/27 11:19:53;;;;;;;7.10;2.90;;;;;;;19.00;66.57;98670.78;105953;1289;96032;-90
2023/07/27 11:22:22;;;;;;;8.10;3.60;;;;;;;19.00;67.12;98663.68;105867;1288;107220;-90
2023/07/27 11:24:51;;;;;;;6.20;2.90;;;;;;;19.02;66.64;98662.48;105773;1287;95869;-90
2023/07/27 11:27:20;;;;;;;8.30;3.20;;;;;;;19.00;65.46;98663.14;105908;1287;95786;-93
2023/07/27 11:29:49;;;;;;;8.10;3.60;;;;;;;18.95;65.19;98664.23;105720;1287;110995;-92
2023/07/27 11:32:25;;;;;;;8.90;3.50;;;;;;;18.90;64.92;98660.80;105784;1288;95815;-92
2023/07/27 11:35:25;;;;;;;10.50;3.80;;;;;;;18.88;66.04;98654.75;105848;1287;107529;-93
